Terminal Aerodrome Forecast
Issued by NWS Twin Cities, MN

Home | Current Version | Previous Version | Text Only | Print | Product List | Glossary On
Versions: 1 2 3 4 5 6 7 8 9 10 11 12 13 14 15 16
000
FTUS43 KMPX 180500 CCA
TAFSTC
TAF COR
KSTC 180541Z 1806/1906 VRB03KT P6SM SCT020
      TEMPO 1806/1808 BKN020
     FM181800 15004KT P6SM SCT025 BKN090=

USA.gov is the U.S. government's official web portal to all federal, state and local government web resources and services.